Time;durP1;ratioP1;P1;durP2;ratioP2;P2;SDS_P1;SDS_P2;PMS_P1;PMS_P2;Temp;Humidity;BMP_temperature;BMP_pressure;BME280_temperature;BME280_humidity;BME280_pressure;Samples;Min_cycle;Max_cycle;Signal;HPM_P1;HPM_P2
2022/07/28 00:00:19;;;;;;;9.00;4.53;;;;;;;;;;5001309;28;20774;-66
2022/07/28 00:02:50;;;;;;;8.60;4.40;;;;;;;;;;5009143;28;20211;-66
2022/07/28 00:05:21;;;;;;;8.73;4.00;;;;;;;;;;5021484;28;20220;-66
2022/07/28 00:07:55;;;;;;;8.27;3.80;;;;;;;;;;5021967;28;20744;-67
2022/07/28 00:10:31;;;;;;;7.93;3.70;;;;;;;;;;5014651;28;20195;-66
2022/07/28 00:13:01;;;;;;;8.93;4.03;;;;;;;;;;5006832;28;20203;-67
2022/07/28 00:15:36;;;;;;;7.43;3.67;;;;;;;;;;5003736;28;20203;-67
2022/07/28 00:18:07;;;;;;;5.47;3.57;;;;;;;;;;5008884;28;20199;-66
2022/07/28 00:20:36;;;;;;;7.93;3.47;;;;;;;;;;5009589;28;20196;-67
2022/07/28 00:23:05;;;;;;;6.13;3.40;;;;;;;;;;4999133;28;20228;-67
2022/07/28 00:25:38;;;;;;;6.03;3.03;;;;;;;;;;5014241;28;20219;-67
2022/07/28 00:28:11;;;;;;;4.90;2.77;;;;;;;;;;4996278;28;20660;-66
2022/07/28 00:30:39;;;;;;;5.47;3.10;;;;;;;;;;5009041;28;20254;-67
2022/07/28 00:33:08;;;;;;;5.73;2.93;;;;;;;;;;5006523;28;20205;-67
2022/07/28 00:35:39;;;;;;;5.23;2.70;;;;;;;;;;5012959;28;20198;-67
2022/07/28 00:38:17;;;;;;;5.33;2.90;;;;;;;;;;5012057;28;20216;-67
2022/07/28 00:43:44;;;;;;;4.57;2.77;;;;;;;;;;5008937;28;20192;-67
2022/07/28 00:46:14;;;;;;;4.20;2.50;;;;;;;;;;4984748;28;20734;-66
2022/07/28 00:48:50;;;;;;;5.67;2.40;;;;;;;;;;5001138;28;20202;-66
2022/07/28 00:51:32;;;;;;;3.63;2.17;;;;;;;;;;5007202;28;20301;-66
2022/07/28 00:54:09;;;;;;;3.40;2.00;;;;;;;;;;4997653;28;20216;-67
2022/07/28 00:56:37;;;;;;;4.63;2.50;;;;;;;;;;4986451;28;20231;-66
2022/07/28 00:59:08;;;;;;;3.77;2.00;;;;;;;;;;5008671;28;20223;-66
2022/07/28 01:01:40;;;;;;;3.50;2.07;;;;;;;;;;5020764;28;20250;-66
2022/07/28 01:04:11;;;;;;;3.80;1.60;;;;;;;;;;4989880;28;20648;-66
2022/07/28 01:06:44;;;;;;;3.27;1.80;;;;;;;;;;5008878;28;20192;-65
2022/07/28 01:09:27;;;;;;;2.80;1.83;;;;;;;;;;5011651;28;20202;-66
2022/07/28 01:12:16;;;;;;;2.97;1.80;;;;;;;;;;5009289;28;20203;-66
2022/07/28 01:14:56;;;;;;;3.30;1.70;;;;;;;;;;5002417;28;20204;-65
2022/07/28 01:17:39;;;;;;;2.27;1.70;;;;;;;;;;5005704;28;20202;-65
2022/07/28 01:20:19;;;;;;;1.40;1.30;;;;;;;;;;5012141;28;20680;-64
2022/07/28 01:23:13;;;;;;;2.87;1.63;;;;;;;;;;4995077;28;20657;-66
2022/07/28 01:25:56;;;;;;;2.20;1.47;;;;;;;;;;4991814;28;20523;-65
2022/07/28 01:28:26;;;;;;;1.90;1.57;;;;;;;;;;5003857;28;20531;-65
2022/07/28 01:31:03;;;;;;;2.20;1.53;;;;;;;;;;5012206;28;20203;-65
2022/07/28 01:33:37;;;;;;;2.30;1.40;;;;;;;;;;5011267;28;20200;-66
2022/07/28 01:36:12;;;;;;;2.93;1.50;;;;;;;;;;4995019;28;20254;-66
2022/07/28 01:38:48;;;;;;;2.50;1.23;;;;;;;;;;4994108;28;20227;-67
2022/07/28 01:41:24;;;;;;;2.20;1.43;;;;;;;;;;5006271;28;20236;-66
2022/07/28 01:43:59;;;;;;;2.37;1.73;;;;;;;;;;5009629;28;20196;-66
2022/07/28 01:46:32;;;;;;;2.33;1.47;;;;;;;;;;4993493;28;20254;-67
2022/07/28 01:49:13;;;;;;;1.80;1.40;;;;;;;;;;5009825;28;20203;-66
2022/07/28 01:51:43;;;;;;;3.27;1.90;;;;;;;;;;5005969;28;20647;-66
2022/07/28 01:54:16;;;;;;;2.97;1.37;;;;;;;;;;4992686;28;20206;-66
2022/07/28 01:56:49;;;;;;;1.80;1.30;;;;;;;;;;5007573;28;20238;-66
2022/07/28 01:59:21;;;;;;;1.73;1.37;;;;;;;;;;5019875;28;20204;-66
2022/07/28 02:01:52;;;;;;;1.97;1.27;;;;;;;;;;5001615;28;20314;-67
2022/07/28 02:04:24;;;;;;;1.70;1.10;;;;;;;;;;5007322;28;20689;-66
2022/07/28 02:06:58;;;;;;;1.60;1.10;;;;;;;;;;5009153;28;20191;-66
2022/07/28 02:09:49;;;;;;;1.80;1.40;;;;;;;;;;5014240;28;20274;-66
2022/07/28 02:12:25;;;;;;;1.63;1.43;;;;;;;;;;5014929;28;20191;-67
2022/07/28 02:14:56;;;;;;;2.00;1.23;;;;;;;;;;5004537;28;20269;-67
2022/07/28 02:17:30;;;;;;;2.63;1.00;;;;;;;;;;5010851;28;20203;-66
2022/07/28 02:20:03;;;;;;;1.47;1.13;;;;;;;;;;4992481;28;20255;-66
2022/07/28 02:22:36;;;;;;;1.57;1.20;;;;;;;;;;5008133;28;20204;-66
2022/07/28 02:25:24;;;;;;;1.43;1.10;;;;;;;;;;4994787;28;20199;-66
2022/07/28 02:28:04;;;;;;;1.43;1.10;;;;;;;;;;5016808;28;20215;-66
2022/07/28 02:30:44;;;;;;;1.43;1.20;;;;;;;;;;5004383;28;20192;-66
2022/07/28 02:33:26;;;;;;;1.30;1.20;;;;;;;;;;4996614;28;20580;-66
2022/07/28 02:36:25;;;;;;;1.77;1.03;;;;;;;;;;4996241;28;20299;-66
2022/07/28 02:38:58;;;;;;;1.87;1.10;;;;;;;;;;4989860;28;20701;-66
2022/07/28 02:41:32;;;;;;;1.93;1.17;;;;;;;;;;5007694;28;20240;-67
2022/07/28 02:44:04;;;;;;;1.10;0.97;;;;;;;;;;5011457;28;20195;-66
2022/07/28 02:46:41;;;;;;;1.07;0.83;;;;;;;;;;4995609;28;20508;-66
2022/07/28 02:49:29;;;;;;;1.30;1.00;;;;;;;;;;5000922;28;20568;-66
2022/07/28 02:52:06;;;;;;;1.20;1.10;;;;;;;;;;4991406;28;20233;-66
2022/07/28 02:54:36;;;;;;;1.47;0.90;;;;;;;;;;5016047;28;20199;-66
2022/07/28 02:57:09;;;;;;;1.60;1.10;;;;;;;;;;5007984;28;20254;-66
2022/07/28 02:59:42;;;;;;;1.80;1.03;;;;;;;;;;5002429;28;20256;-66
2022/07/28 03:02:14;;;;;;;1.20;0.83;;;;;;;;;;4994374;28;20579;-65
2022/07/28 03:04:57;;;;;;;1.53;1.10;;;;;;;;;;4968942;28;20204;-67
2022/07/28 03:07:36;;;;;;;1.53;0.90;;;;;;;;;;5000117;28;20203;-67
2022/07/28 03:10:24;;;;;;;2.13;1.20;;;;;;;;;;5014669;28;20664;-66
2022/07/28 03:13:07;;;;;;;1.87;1.13;;;;;;;;;;5006426;28;20656;-66
2022/07/28 03:15:41;;;;;;;1.30;0.87;;;;;;;;;;4984413;28;20290;-67
2022/07/28 03:18:26;;;;;;;1.17;1.07;;;;;;;;;;4995435;28;20199;-66
2022/07/28 03:21:04;;;;;;;1.43;1.03;;;;;;;;;;4990915;28;20235;-66
2022/07/28 03:23:51;;;;;;;1.70;0.80;;;;;;;;;;5006563;28;20218;-67
2022/07/28 03:26:32;;;;;;;0.73;0.73;;;;;;;;;;4993501;28;20204;-66
2022/07/28 03:29:07;;;;;;;1.60;1.00;;;;;;;;;;4982179;28;20583;-66
2022/07/28 03:31:41;;;;;;;1.20;0.83;;;;;;;;;;5013497;28;20209;-66
2022/07/28 03:34:11;;;;;;;1.50;1.00;;;;;;;;;;4994631;28;20211;-66
2022/07/28 03:36:42;;;;;;;1.10;1.00;;;;;;;;;;5001892;28;20819;-66
2022/07/28 03:39:14;;;;;;;1.30;0.90;;;;;;;;;;5003822;28;20211;-66
2022/07/28 03:41:48;;;;;;;0.73;0.70;;;;;;;;;;5008507;28;20239;-65
2022/07/28 03:44:22;;;;;;;1.47;1.00;;;;;;;;;;4991042;28;20200;-66
2022/07/28 03:46:59;;;;;;;1.37;0.70;;;;;;;;;;4989023;28;20210;-66
2022/07/28 03:49:31;;;;;;;0.93;0.80;;;;;;;;;;4986546;28;20203;-66
2022/07/28 03:52:01;;;;;;;1.10;0.90;;;;;;;;;;4983927;28;20216;-66
2022/07/28 03:54:36;;;;;;;1.10;0.67;;;;;;;;;;4989975;28;20376;-67
2022/07/28 03:57:20;;;;;;;1.03;0.90;;;;;;;;;;5008883;28;20528;-65
2022/07/28 03:59:52;;;;;;;1.00;0.90;;;;;;;;;;5006297;28;20210;-65
2022/07/28 04:02:42;;;;;;;0.80;0.70;;;;;;;;;;5002025;28;20231;-66
2022/07/28 04:05:23;;;;;;;1.10;0.90;;;;;;;;;;5007267;28;20770;-66
2022/07/28 04:07:54;;;;;;;0.67;0.60;;;;;;;;;;4973060;28;20699;-66
2022/07/28 04:10:25;;;;;;;1.30;0.70;;;;;;;;;;5005085;28;20202;-67
2022/07/28 04:12:57;;;;;;;1.50;0.90;;;;;;;;;;4983571;28;20212;-67
2022/07/28 04:15:33;;;;;;;0.90;0.80;;;;;;;;;;4988857;28;20220;-67
2022/07/28 04:18:02;;;;;;;0.93;0.70;;;;;;;;;;5002307;28;20204;-67
2022/07/28 04:20:32;;;;;;;0.83;0.80;;;;;;;;;;5015467;28;20336;-65
2022/07/28 04:23:04;;;;;;;1.37;0.90;;;;;;;;;;5002978;28;20302;-66
2022/07/28 04:25:35;;;;;;;1.03;0.93;;;;;;;;;;5013353;28;20218;-66
2022/07/28 04:28:08;;;;;;;0.97;0.87;;;;;;;;;;4970677;28;20679;-66
2022/07/28 04:30:39;;;;;;;0.77;0.73;;;;;;;;;;4989881;28;20227;-68
2022/07/28 04:33:13;;;;;;;1.60;1.00;;;;;;;;;;5009331;28;20221;-66
2022/07/28 04:35:45;;;;;;;1.10;0.70;;;;;;;;;;5017402;28;20199;-66
2022/07/28 04:38:16;;;;;;;1.20;0.93;;;;;;;;;;4977743;28;20648;-66
2022/07/28 04:40:48;;;;;;;0.97;0.70;;;;;;;;;;5007106;28;20216;-66
2022/07/28 04:43:20;;;;;;;0.90;0.77;;;;;;;;;;4993699;28;20235;-67
2022/07/28 04:45:52;;;;;;;0.70;0.70;;;;;;;;;;4982169;28;20184;-67
2022/07/28 04:48:24;;;;;;;0.83;0.73;;;;;;;;;;5010020;28;20589;-68
2022/07/28 04:50:56;;;;;;;0.67;0.50;;;;;;;;;;4994650;28;20449;-66
2022/07/28 04:53:28;;;;;;;1.00;0.70;;;;;;;;;;5016507;28;20191;-66
2022/07/28 04:56:13;;;;;;;0.77;0.73;;;;;;;;;;5013938;28;20238;-67
2022/07/28 04:58:46;;;;;;;0.70;0.70;;;;;;;;;;5004305;28;20192;-66
2022/07/28 05:01:17;;;;;;;1.27;0.87;;;;;;;;;;4998435;28;20227;-67
2022/07/28 05:03:57;;;;;;;0.70;0.70;;;;;;;;;;5006400;28;20239;-66
2022/07/28 05:06:34;;;;;;;0.70;0.70;;;;;;;;;;5017740;28;20204;-66
2022/07/28 05:09:03;;;;;;;0.60;0.60;;;;;;;;;;5013909;28;21144;-66
2022/07/28 05:11:34;;;;;;;1.30;0.67;;;;;;;;;;5021375;28;20199;-68
2022/07/28 05:14:07;;;;;;;0.70;0.70;;;;;;;;;;5010839;28;20575;-68
2022/07/28 05:16:41;;;;;;;1.10;0.77;;;;;;;;;;5008696;28;20200;-66
2022/07/28 05:19:13;;;;;;;0.80;0.80;;;;;;;;;;5012548;28;20213;-66
2022/07/28 05:21:43;;;;;;;0.50;0.50;;;;;;;;;;5023790;28;20668;-67
2022/07/28 05:24:15;;;;;;;0.87;0.70;;;;;;;;;;4996046;28;20228;-68
2022/07/28 05:26:46;;;;;;;0.60;0.60;;;;;;;;;;5002841;28;20262;-67
2022/07/28 05:29:20;;;;;;;1.03;0.90;;;;;;;;;;5023290;28;20213;-66
2022/07/28 05:31:52;;;;;;;0.67;0.60;;;;;;;;;;5021314;28;20219;-66
2022/07/28 05:34:21;;;;;;;0.87;0.60;;;;;;;;;;4990788;28;20196;-66
2022/07/28 05:36:53;;;;;;;1.23;0.53;;;;;;;;;;5012863;28;20200;-66
2022/07/28 05:39:23;;;;;;;0.60;0.60;;;;;;;;;;5009239;28;20214;-66
2022/07/28 05:41:55;;;;;;;0.80;0.80;;;;;;;;;;5016037;28;20199;-66
2022/07/28 05:44:25;;;;;;;0.77;0.60;;;;;;;;;;5016956;28;20199;-66
2022/07/28 05:46:55;;;;;;;2.40;0.90;;;;;;;;;;5004256;28;20582;-66
2022/07/28 05:49:28;;;;;;;1.03;0.70;;;;;;;;;;5003056;28;20204;-66
2022/07/28 05:52:00;;;;;;;1.00;0.77;;;;;;;;;;5014619;28;20222;-65
2022/07/28 05:54:34;;;;;;;0.93;0.60;;;;;;;;;;5018302;28;20680;-66
2022/07/28 05:57:06;;;;;;;0.97;0.60;;;;;;;;;;5018058;28;20195;-67
2022/07/28 05:59:43;;;;;;;0.83;0.70;;;;;;;;;;5022019;28;20199;-67
2022/07/28 06:02:14;;;;;;;0.70;0.70;;;;;;;;;;5000349;28;20249;-67
2022/07/28 06:04:46;;;;;;;2.20;1.13;;;;;;;;;;5003247;28;20299;-65
2022/07/28 06:07:13;;;;;;;0.93;0.80;;;;;;;;;;5015174;28;20188;-66
2022/07/28 06:09:43;;;;;;;0.87;0.70;;;;;;;;;;5021023;28;20205;-66
2022/07/28 06:12:12;;;;;;;1.00;0.60;;;;;;;;;;4995190;28;20204;-69
2022/07/28 06:14:44;;;;;;;1.30;1.20;;;;;;;;;;5008298;28;20215;-68
2022/07/28 06:17:17;;;;;;;2.83;1.10;;;;;;;;;;5014633;28;20203;-65
2022/07/28 06:19:47;;;;;;;1.67;1.03;;;;;;;;;;5018337;28;20282;-66
2022/07/28 06:22:18;;;;;;;1.07;0.87;;;;;;;;;;4998865;28;20191;-66
2022/07/28 06:24:51;;;;;;;0.87;0.83;;;;;;;;;;5015156;28;20202;-66
2022/07/28 06:27:23;;;;;;;1.30;0.87;;;;;;;;;;5005944;28;20216;-66
2022/07/28 06:29:55;;;;;;;1.23;0.80;;;;;;;;;;5009333;28;20203;-66
2022/07/28 06:32:25;;;;;;;2.00;1.07;;;;;;;;;;5024948;28;20207;-69
2022/07/28 06:34:56;;;;;;;1.43;1.07;;;;;;;;;;5017058;28;20751;-68
2022/07/28 06:37:25;;;;;;;1.17;0.80;;;;;;;;;;5012970;28;20199;-68
2022/07/28 06:39:57;;;;;;;2.13;0.80;;;;;;;;;;5005580;28;20211;-67
2022/07/28 06:42:27;;;;;;;1.13;1.00;;;;;;;;;;5004739;28;20200;-67
2022/07/28 06:44:55;;;;;;;1.23;0.90;;;;;;;;;;5014507;28;20212;-68
2022/07/28 06:47:28;;;;;;;1.57;1.23;;;;;;;;;;5011189;28;20219;-65
2022/07/28 06:49:58;;;;;;;1.40;1.00;;;;;;;;;;5026798;28;20397;-66
2022/07/28 06:52:30;;;;;;;1.27;0.80;;;;;;;;;;5005996;28;20211;-68
2022/07/28 06:55:03;;;;;;;1.33;1.00;;;;;;;;;;5013537;28;20203;-68
2022/07/28 06:57:33;;;;;;;1.37;1.00;;;;;;;;;;5009057;28;20191;-66
2022/07/28 07:00:05;;;;;;;1.33;0.87;;;;;;;;;;5008040;28;20203;-66
2022/07/28 07:02:43;;;;;;;1.73;1.00;;;;;;;;;;5002578;28;20220;-66
2022/07/28 07:05:30;;;;;;;2.03;0.90;;;;;;;;;;4993601;28;20271;-66
2022/07/28 07:08:02;;;;;;;1.23;0.80;;;;;;;;;;5008107;28;20608;-66
2022/07/28 07:10:32;;;;;;;1.40;0.70;;;;;;;;;;5007918;28;20202;-66
2022/07/28 07:13:04;;;;;;;1.57;1.00;;;;;;;;;;5008039;28;20693;-66
2022/07/28 07:15:32;;;;;;;1.30;0.90;;;;;;;;;;4973001;28;20240;-66
2022/07/28 07:18:02;;;;;;;1.07;0.80;;;;;;;;;;5010083;28;20195;-66
2022/07/28 07:20:33;;;;;;;0.77;0.77;;;;;;;;;;5005834;28;20195;-66
2022/07/28 07:23:08;;;;;;;1.47;1.00;;;;;;;;;;5001399;28;20318;-66
2022/07/28 07:25:37;;;;;;;1.17;0.90;;;;;;;;;;5009976;28;20192;-67
2022/07/28 07:28:10;;;;;;;1.10;0.70;;;;;;;;;;4999436;28;20227;-69
2022/07/28 07:30:43;;;;;;;1.07;0.87;;;;;;;;;;5007287;28;20196;-68
2022/07/28 07:33:15;;;;;;;0.90;0.90;;;;;;;;;;5011827;28;20202;-68
2022/07/28 07:35:44;;;;;;;1.40;1.03;;;;;;;;;;4994261;28;20211;-66
2022/07/28 07:38:16;;;;;;;1.20;0.80;;;;;;;;;;5014005;28;20217;-66
2022/07/28 07:40:50;;;;;;;1.23;0.90;;;;;;;;;;5001894;28;20211;-66
2022/07/28 07:43:22;;;;;;;0.67;0.67;;;;;;;;;;5010994;28;20227;-66
2022/07/28 07:45:55;;;;;;;1.30;0.70;;;;;;;;;;4999205;28;20195;-66
2022/07/28 07:48:25;;;;;;;0.93;0.77;;;;;;;;;;5011668;28;20188;-66
2022/07/28 07:50:56;;;;;;;1.13;0.80;;;;;;;;;;5002411;28;20390;-67
2022/07/28 07:53:24;;;;;;;1.60;0.90;;;;;;;;;;4999824;28;20204;-67
2022/07/28 07:55:56;;;;;;;1.33;0.93;;;;;;;;;;5015293;28;20207;-67
2022/07/28 07:58:28;;;;;;;1.40;0.60;;;;;;;;;;5013464;28;20218;-68
2022/07/28 08:00:58;;;;;;;1.00;0.70;;;;;;;;;;5017660;28;20235;-66
2022/07/28 08:03:29;;;;;;;1.17;0.90;;;;;;;;;;5016062;28;20494;-66
2022/07/28 08:06:10;;;;;;;1.50;0.80;;;;;;;;;;5010738;28;20199;-66
2022/07/28 08:08:44;;;;;;;1.53;0.90;;;;;;;;;;5009056;28;20202;-66
2022/07/28 08:11:17;;;;;;;2.20;1.07;;;;;;;;;;4994551;28;20198;-65
2022/07/28 08:13:48;;;;;;;2.03;0.80;;;;;;;;;;5014977;28;20277;-66
2022/07/28 08:16:18;;;;;;;0.93;0.73;;;;;;;;;;4991758;28;20215;-67
2022/07/28 08:18:52;;;;;;;1.60;0.97;;;;;;;;;;4989648;28;20211;-68
2022/07/28 08:21:22;;;;;;;1.03;0.80;;;;;;;;;;5017239;28;20194;-69
2022/07/28 08:23:51;;;;;;;0.77;0.70;;;;;;;;;;4998128;28;20227;-68
2022/07/28 08:26:21;;;;;;;1.17;0.93;;;;;;;;;;5013419;28;20199;-67
2022/07/28 08:28:53;;;;;;;1.07;0.90;;;;;;;;;;5017437;28;20211;-69
2022/07/28 08:31:27;;;;;;;0.97;0.73;;;;;;;;;;5005576;28;20232;-65
2022/07/28 08:34:03;;;;;;;1.40;0.63;;;;;;;;;;5016441;28;20230;-65
2022/07/28 08:36:56;;;;;;;1.00;0.77;;;;;;;;;;5008606;28;20783;-66
2022/07/28 08:39:26;;;;;;;1.60;1.10;;;;;;;;;;4989567;28;20227;-65
2022/07/28 08:42:06;;;;;;;3.63;0.80;;;;;;;;;;4993952;28;20199;-67
2022/07/28 08:44:38;;;;;;;0.70;0.70;;;;;;;;;;5008492;28;20214;-68
2022/07/28 08:47:10;;;;;;;1.67;0.90;;;;;;;;;;5014242;28;20214;-67
2022/07/28 08:49:42;;;;;;;0.93;0.70;;;;;;;;;;5011433;28;20251;-68
2022/07/28 08:52:14;;;;;;;1.63;0.90;;;;;;;;;;4997652;28;20208;-66
2022/07/28 08:54:44;;;;;;;0.40;0.40;;;;;;;;;;5013286;28;20207;-65
2022/07/28 08:57:16;;;;;;;1.43;0.87;;;;;;;;;;4993447;28;20667;-65
2022/07/28 08:59:50;;;;;;;0.80;0.70;;;;;;;;;;4983477;28;20230;-66
2022/07/28 09:02:47;;;;;;;1.13;0.77;;;;;;;;;;5009507;28;20747;-66
2022/07/28 09:05:24;;;;;;;1.33;0.70;;;;;;;;;;5008457;28;20682;-66
2022/07/28 09:07:55;;;;;;;1.00;0.80;;;;;;;;;;5011145;28;20187;-66
2022/07/28 09:10:27;;;;;;;0.80;0.70;;;;;;;;;;5005204;28;20222;-67
2022/07/28 09:12:58;;;;;;;0.70;0.70;;;;;;;;;;5007818;28;20206;-68
2022/07/28 09:15:31;;;;;;;0.87;0.73;;;;;;;;;;5006703;28;20208;-67
2022/07/28 09:18:03;;;;;;;1.23;0.97;;;;;;;;;;5007259;28;20222;-67
2022/07/28 09:20:41;;;;;;;1.40;0.90;;;;;;;;;;5028279;28;20203;-67
2022/07/28 09:23:13;;;;;;;0.80;0.80;;;;;;;;;;5020725;28;20682;-67
2022/07/28 09:26:08;;;;;;;1.47;0.90;;;;;;;;;;5025658;28;20190;-66
2022/07/28 09:28:56;;;;;;;0.83;0.70;;;;;;;;;;5007959;28;20216;-66
2022/07/28 09:31:29;;;;;;;1.27;0.70;;;;;;;;;;5009537;28;20731;-66
2022/07/28 09:34:03;;;;;;;0.97;0.80;;;;;;;;;;5014208;28;20723;-66
2022/07/28 09:36:40;;;;;;;0.97;0.77;;;;;;;;;;5013896;28;20203;-67
2022/07/28 09:39:10;;;;;;;1.17;0.70;;;;;;;;;;5005372;28;20215;-68
2022/07/28 09:41:54;;;;;;;2.83;0.90;;;;;;;;;;5024927;28;20253;-68
2022/07/28 09:44:27;;;;;;;1.07;0.83;;;;;;;;;;5010740;28;20296;-68
2022/07/28 09:47:00;;;;;;;0.90;0.60;;;;;;;;;;5014494;28;20198;-66
2022/07/28 09:49:42;;;;;;;1.63;0.80;;;;;;;;;;5023250;28;20196;-66
2022/07/28 09:52:30;;;;;;;0.70;0.70;;;;;;;;;;4986881;28;20851;-66
2022/07/28 09:55:01;;;;;;;0.77;0.70;;;;;;;;;;4989876;28;20245;-66
2022/07/28 09:57:33;;;;;;;2.87;0.90;;;;;;;;;;5006085;28;20187;-66
2022/07/28 10:00:11;;;;;;;2.17;0.83;;;;;;;;;;4986228;28;20285;-66
2022/07/28 10:02:41;;;;;;;1.07;0.80;;;;;;;;;;4987417;28;20271;-66
2022/07/28 10:05:18;;;;;;;0.90;0.50;;;;;;;;;;5007679;28;20234;-67
2022/07/28 10:07:52;;;;;;;1.03;0.90;;;;;;;;;;5021903;28;20462;-68
2022/07/28 10:10:25;;;;;;;1.67;0.80;;;;;;;;;;4994344;28;20191;-68
2022/07/28 10:13:04;;;;;;;1.10;0.70;;;;;;;;;;5016803;28;20199;-68
2022/07/28 10:18:24;;;;;;;0.87;0.70;;;;;;;;;;5020854;28;20201;-66
2022/07/28 10:20:58;;;;;;;1.47;0.80;;;;;;;;;;5013787;28;20203;-66
2022/07/28 10:23:33;;;;;;;1.53;0.70;;;;;;;;;;5017299;28;20609;-66
2022/07/28 10:26:03;;;;;;;1.23;0.70;;;;;;;;;;4995708;28;20206;-66
2022/07/28 10:28:43;;;;;;;0.90;0.73;;;;;;;;;;4987215;28;20208;-66
2022/07/28 10:31:31;;;;;;;1.50;0.70;;;;;;;;;;5018284;28;20273;-66
2022/07/28 10:34:03;;;;;;;1.50;0.90;;;;;;;;;;5020959;28;20202;-66
2022/07/28 10:36:43;;;;;;;1.20;0.90;;;;;;;;;;5003360;28;20704;-66
2022/07/28 10:39:19;;;;;;;1.30;0.80;;;;;;;;;;4983473;28;20208;-67
2022/07/28 10:41:49;;;;;;;1.63;0.93;;;;;;;;;;5007578;28;20199;-66
2022/07/28 10:44:28;;;;;;;0.77;0.70;;;;;;;;;;5006498;28;20207;-67
2022/07/28 10:46:58;;;;;;;1.30;0.70;;;;;;;;;;5005143;28;20200;-68
2022/07/28 10:49:28;;;;;;;1.27;0.80;;;;;;;;;;4996419;28;20198;-68
2022/07/28 10:52:03;;;;;;;1.57;0.90;;;;;;;;;;4997713;28;20753;-69
2022/07/28 10:55:23;;;;;;;0.90;0.80;;;;;;;;;;4989918;28;20469;-68
2022/07/28 10:58:15;;;;;;;1.60;0.80;;;;;;;;;;5011036;28;20592;-68
2022/07/28 11:00:57;;;;;;;2.23;1.20;;;;;;;;;;5011005;28;20355;-68
2022/07/28 11:03:46;;;;;;;1.03;0.70;;;;;;;;;;5018759;28;20219;-67
2022/07/28 11:06:43;;;;;;;2.53;0.80;;;;;;;;;;5019064;28;20207;-67
2022/07/28 11:09:26;;;;;;;0.70;0.63;;;;;;;;;;5010643;28;20231;-67
2022/07/28 11:12:01;;;;;;;1.00;0.70;;;;;;;;;;4996486;28;20201;-65
2022/07/28 11:14:36;;;;;;;2.00;0.60;;;;;;;;;;5013797;28;20884;-65
2022/07/28 11:17:20;;;;;;;2.53;0.70;;;;;;;;;;5012876;28;20207;-67
2022/07/28 11:20:04;;;;;;;0.90;0.70;;;;;;;;;;5013798;28;20201;-67
2022/07/28 11:23:14;;;;;;;1.60;0.80;;;;;;;;;;5010791;28;20203;-67
2022/07/28 11:25:45;;;;;;;0.97;0.70;;;;;;;;;;5014212;28;20227;-65
2022/07/28 11:28:16;;;;;;;1.07;0.80;;;;;;;;;;5002858;28;20661;-65
2022/07/28 11:30:51;;;;;;;0.90;0.70;;;;;;;;;;4988215;28;20211;-67
2022/07/28 11:33:24;;;;;;;1.27;0.80;;;;;;;;;;4987877;28;20199;-67
2022/07/28 11:35:59;;;;;;;1.40;0.80;;;;;;;;;;5007679;28;20206;-67
2022/07/28 11:38:32;;;;;;;1.57;0.60;;;;;;;;;;4999387;28;20211;-67
2022/07/28 11:40:59;;;;;;;1.37;0.80;;;;;;;;;;5007924;28;20230;-67
2022/07/28 11:43:43;;;;;;;1.10;0.83;;;;;;;;;;4989907;28;20223;-67
2022/07/28 11:46:13;;;;;;;1.57;0.97;;;;;;;;;;5015708;28;20208;-66
2022/07/28 11:48:48;;;;;;;1.10;0.80;;;;;;;;;;5012734;28;20606;-66
2022/07/28 11:51:22;;;;;;;2.37;0.70;;;;;;;;;;5013031;28;20883;-66
2022/07/28 11:53:55;;;;;;;1.50;0.80;;;;;;;;;;5016804;28;20298;-66
2022/07/28 11:56:24;;;;;;;1.67;0.90;;;;;;;;;;5004750;28;20226;-66
2022/07/28 11:59:03;;;;;;;1.10;0.87;;;;;;;;;;4999726;28;20199;-66
2022/07/28 12:01:34;;;;;;;2.50;0.90;;;;;;;;;;4998640;28;20702;-69
2022/07/28 12:04:10;;;;;;;1.43;0.80;;;;;;;;;;4981803;28;20239;-68
2022/07/28 12:06:45;;;;;;;1.77;0.90;;;;;;;;;;5008978;28;20308;-68
2022/07/28 12:09:20;;;;;;;1.47;0.80;;;;;;;;;;4971598;28;20198;-67
2022/07/28 12:11:59;;;;;;;0.80;0.70;;;;;;;;;;5004762;28;20190;-65
2022/07/28 12:14:31;;;;;;;1.63;1.00;;;;;;;;;;4996381;28;20217;-66
2022/07/28 12:17:06;;;;;;;1.37;0.77;;;;;;;;;;5008124;28;20704;-69
2022/07/28 12:19:34;;;;;;;0.80;0.77;;;;;;;;;;5009949;28;21062;-69
2022/07/28 12:22:19;;;;;;;2.27;0.90;;;;;;;;;;5020225;28;20356;-67
2022/07/28 12:24:58;;;;;;;1.63;1.00;;;;;;;;;;4990720;28;20219;-66
2022/07/28 12:27:29;;;;;;;1.07;0.70;;;;;;;;;;4978302;28;20219;-66
2022/07/28 12:30:04;;;;;;;1.43;0.80;;;;;;;;;;5011666;28;20637;-67
2022/07/28 12:32:36;;;;;;;1.70;0.80;;;;;;;;;;4995005;28;20191;-67
2022/07/28 12:35:08;;;;;;;2.53;0.73;;;;;;;;;;5006689;28;20196;-66
2022/07/28 12:37:43;;;;;;;1.07;0.80;;;;;;;;;;5002394;28;20199;-66
2022/07/28 12:40:22;;;;;;;1.87;0.90;;;;;;;;;;4986294;28;20200;-66
2022/07/28 12:42:55;;;;;;;2.03;1.13;;;;;;;;;;5008390;28;20214;-67
2022/07/28 12:45:27;;;;;;;1.97;0.90;;;;;;;;;;4992472;28;20231;-66
2022/07/28 12:48:09;;;;;;;1.27;0.73;;;;;;;;;;5011222;28;20214;-65
2022/07/28 12:50:44;;;;;;;1.53;0.80;;;;;;;;;;5006280;28;20580;-68
2022/07/28 12:53:14;;;;;;;0.97;0.80;;;;;;;;;;5015921;28;20195;-68
2022/07/28 12:55:45;;;;;;;2.30;0.80;;;;;;;;;;4996216;28;20210;-68
2022/07/28 12:58:28;;;;;;;1.77;0.80;;;;;;;;;;5014007;28;20200;-67
2022/07/28 13:01:01;;;;;;;2.13;0.90;;;;;;;;;;5015826;28;20476;-65
2022/07/28 13:03:46;;;;;;;1.07;0.80;;;;;;;;;;5006267;28;20207;-65
2022/07/28 13:06:22;;;;;;;2.30;0.80;;;;;;;;;;4996342;28;20712;-68
2022/07/28 13:08:56;;;;;;;1.50;0.90;;;;;;;;;;5004540;28;20204;-68
2022/07/28 13:11:43;;;;;;;2.37;0.90;;;;;;;;;;5004290;28;20192;-67
2022/07/28 13:14:15;;;;;;;1.67;0.90;;;;;;;;;;5017991;28;20529;-68
2022/07/28 13:16:56;;;;;;;0.60;0.60;;;;;;;;;;5007096;28;20515;-68
2022/07/28 13:19:33;;;;;;;1.10;0.80;;;;;;;;;;5001941;28;20202;-67
2022/07/28 13:22:05;;;;;;;1.37;0.90;;;;;;;;;;5018607;28;20274;-67
2022/07/28 13:24:38;;;;;;;1.60;0.90;;;;;;;;;;5009792;28;20227;-68
2022/07/28 13:27:08;;;;;;;1.17;0.80;;;;;;;;;;5019700;28;20222;-67
2022/07/28 13:29:38;;;;;;;0.80;0.70;;;;;;;;;;5010187;28;20636;-67
2022/07/28 13:32:10;;;;;;;0.90;0.70;;;;;;;;;;5014770;28;20213;-66
2022/07/28 13:34:43;;;;;;;2.00;0.80;;;;;;;;;;5007880;28;20199;-66
2022/07/28 13:37:13;;;;;;;1.00;0.80;;;;;;;;;;5015738;28;20196;-66
2022/07/28 13:39:44;;;;;;;1.13;0.73;;;;;;;;;;4997816;28;20711;-65
2022/07/28 13:42:23;;;;;;;1.73;0.90;;;;;;;;;;4995115;28;20207;-67
2022/07/28 13:44:54;;;;;;;1.63;0.80;;;;;;;;;;5006946;28;20664;-67
2022/07/28 13:47:28;;;;;;;1.43;0.80;;;;;;;;;;4990247;28;20747;-66
2022/07/28 13:50:07;;;;;;;0.97;0.80;;;;;;;;;;5010512;28;20191;-66
2022/07/28 13:52:40;;;;;;;0.80;0.73;;;;;;;;;;4989347;28;20661;-67
2022/07/28 13:55:23;;;;;;;2.80;1.20;;;;;;;;;;5009500;28;20206;-66
2022/07/28 13:57:55;;;;;;;0.70;0.70;;;;;;;;;;4993041;28;20196;-67
2022/07/28 14:00:28;;;;;;;1.57;0.83;;;;;;;;;;5013017;28;20192;-66
2022/07/28 14:03:04;;;;;;;0.90;0.80;;;;;;;;;;4988874;28;20211;-66
2022/07/28 14:05:35;;;;;;;1.50;0.73;;;;;;;;;;5002720;28;20266;-65
2022/07/28 14:08:07;;;;;;;3.70;0.90;;;;;;;;;;5004771;28;20214;-65
2022/07/28 14:10:38;;;;;;;1.30;0.97;;;;;;;;;;5008288;28;20184;-65
2022/07/28 14:13:18;;;;;;;1.80;1.13;;;;;;;;;;5013308;28;20187;-65
2022/07/28 14:15:48;;;;;;;1.40;0.87;;;;;;;;;;5011536;28;20202;-66
2022/07/28 14:18:39;;;;;;;1.77;0.90;;;;;;;;;;4990208;28;20188;-67
2022/07/28 14:21:11;;;;;;;2.90;1.07;;;;;;;;;;5008573;28;20227;-66
2022/07/28 14:23:41;;;;;;;2.10;0.90;;;;;;;;;;5008770;28;20211;-65
2022/07/28 14:26:15;;;;;;;1.70;1.10;;;;;;;;;;5006942;28;20211;-65
2022/07/28 14:29:06;;;;;;;1.87;0.87;;;;;;;;;;5006990;28;20224;-66
2022/07/28 14:31:43;;;;;;;1.30;0.80;;;;;;;;;;5011246;28;20196;-66
2022/07/28 14:34:15;;;;;;;1.73;0.90;;;;;;;;;;4999697;28;20192;-66
2022/07/28 14:36:55;;;;;;;1.27;0.70;;;;;;;;;;5005734;28;20195;-66
2022/07/28 14:39:29;;;;;;;2.33;1.37;;;;;;;;;;5015625;28;20215;-66
2022/07/28 14:41:57;;;;;;;1.00;0.80;;;;;;;;;;5012004;28;20211;-67
2022/07/28 14:44:29;;;;;;;1.07;0.90;;;;;;;;;;5019288;28;20282;-67
2022/07/28 14:47:00;;;;;;;1.20;0.90;;;;;;;;;;5021060;28;20254;-66
2022/07/28 14:49:33;;;;;;;1.10;0.90;;;;;;;;;;5025769;28;20269;-65
2022/07/28 14:52:01;;;;;;;0.83;0.80;;;;;;;;;;5021266;28;20217;-66
2022/07/28 14:54:32;;;;;;;1.13;1.03;;;;;;;;;;4990627;28;20191;-67
2022/07/28 14:57:15;;;;;;;2.33;1.10;;;;;;;;;;5005639;28;20246;-66
2022/07/28 14:59:46;;;;;;;1.03;0.77;;;;;;;;;;5002387;28;20684;-66
2022/07/28 15:02:13;;;;;;;0.87;0.70;;;;;;;;;;5011819;28;20245;-66
2022/07/28 15:04:56;;;;;;;1.23;1.07;;;;;;;;;;5009501;28;20273;-66
2022/07/28 15:07:25;;;;;;;1.00;0.80;;;;;;;;;;5009032;28;20205;-66
2022/07/28 15:09:59;;;;;;;1.03;0.90;;;;;;;;;;5012263;28;20219;-66
2022/07/28 15:12:37;;;;;;;0.90;0.70;;;;;;;;;;5000922;28;20207;-68
2022/07/28 15:15:09;;;;;;;1.10;0.90;;;;;;;;;;5008270;28;20759;-67
2022/07/28 15:17:38;;;;;;;0.97;0.80;;;;;;;;;;5015619;28;20237;-66
2022/07/28 15:20:10;;;;;;;1.47;0.77;;;;;;;;;;5013263;28;20210;-65
2022/07/28 15:22:40;;;;;;;1.13;0.90;;;;;;;;;;5014031;28;20202;-66
2022/07/28 15:25:12;;;;;;;1.20;0.80;;;;;;;;;;5021963;28;20223;-67
2022/07/28 15:27:43;;;;;;;1.83;0.90;;;;;;;;;;5013488;28;20208;-68
2022/07/28 15:30:14;;;;;;;1.20;1.00;;;;;;;;;;5007650;28;20195;-68
2022/07/28 15:32:47;;;;;;;1.10;0.80;;;;;;;;;;5010418;28;20214;-67